Memphis, TN

4:22 PM CDT on July 23, 2016 (GMT -0500)
Midtown Memphis (OEM) | | Change Station
Active Advisory: Heat Advisory

Elev 320 ft 35.13 °N, 89.97 °W | Updated 9 seconds ago

Mostly Cloudy
Mostly Cloudy
86.3 °F
Feels Like 96 °F
N
0.0
Wind Variable Wind from SE
Gusts 0.0 mph

Today
High -- | Low -- °F
--% Chance of Precip.
Yesterday
High -- | Low -- °F
Precip. -- in
Pressure 29.93 in
Visibility 10.0 miles
Clouds Few 5000 ft
Mostly Cloudy 16000 ft
Mostly Cloudy 22000 ft
Heat Index 96 °F
Dew Point 75 °F
Humidity 70%
Rainfall 0.00 in
Snow Depth Not available.
6:02 AM 8:09 PM
Waning Gibbous, 82% visible
METAR KMEM 232054Z 17006KT 10SM FEW050 BKN160 BKN220 31/22 A2994 RMK AO2 SLP135 T03060217 56018
Pressure 29.93 in
Visibility 10.0 miles
Clouds Few 5000 ft
Mostly Cloudy 16000 ft
Mostly Cloudy 22000 ft
Heat Index 96 °F
Dew Point 75 °F
Humidity 70%
Rainfall 0.00 in
Snow Depth Not available.
6:02 AM 8:09 PM
Waning Gibbous, 82% visible
METAR KMEM 232054Z 17006KT 10SM FEW050 BKN160 BKN220 31/22 A2994 RMK AO2 SLP135 T03060217 56018

10-Day Weather Forecast

Almanac

Astronomy

Jul. 23, 2016 Rise Set
Actual Time
Civil Twilight
Nautical Twilight
Astronomical Twilight
Moon
Length of Visible Light
Length of Day
Tomorrow will be .
, % of the Moon is Illuminated

Today's Extremes

State Highs State Lows

Community

WunderPhotos

Upload Photos

1,926,929 photos uploaded!

WunderBlog® & News

Nearby

Air Quality

  Air Quality AQ Index Pollutant
Not available.

Snow Depth

Station Depth Elevation

Earthquake Activity

City Distance Mag. Time & Date
Minimum magnitude displayed is 2.5.

Coastal Water Temperatures

Place Temperature

Stations

Nearby Weather Stations

Station Location Temp. Windchill Dew Point Humidity Wind Precip. Elev Updated Type
                   

Watches & Warnings

Heat Advisory
Issued: 2:53 PM CDT Jul. 23, 2016 – National Weather Service

... Heat advisory remains in effect until 8 PM CDT Sunday...

* heat indices... .105 to 110 degrees.

* Timing... from late morning through early evening today and
Sunday... when thunderstorms are not occurring.

* Impacts... prolonged periods outdoors may result in heat
related illnesses such as heat exhaustion or heat stroke.

Precautionary/preparedness actions...

A heat advisory means that a period of hot temperatures is
expected. The combination of hot temperatures and high humidity
will combine to create a situation in which heat illnesses are
possible. Drink plenty of fluids... stay in an air-conditioned
room... stay out of the sun... and check up on relatives and
neighbors.

Take extra precautions... if you work or spend time outside. When
possible... reschedule strenuous activities to early morning or
evening. Know the signs and symptoms of heat exhaustion and heat
stroke. Wear light weight and loose fitting clothing when
possible and drink plenty of water.